Alakanuk, Alaska
Current Conditions -  °F | °C
As of 2:16 PM on Wednesday 22 Oct 2014 (Local Time) from PAEM Reporting Station
Overcast Overcast  
Wind Chill: 25°   Ceiling: 1800
Heat Index: 34°   Visibility: 10mi
Dew Point: 25°   Wind: 13mph
Humidity: 70%   Direction: 320°NW
Pressure: 29.86"   Gusts: 18mph
Location:  62.69°N, 164.62°W
Report Text: PAEM 222216Z 32011G16KT 10SM OVC018 01/M04 A2986 RMK AO1
Loading
Personal Weather Stations






























Interactive Weather Map
Tropical Storm Tracking
New forecast layout! Learn more

10-Day Weather Forecast

Advertisements
Track Severe Weather on mobile